PWSweather.com
Personal Weather Stations
Station Observations
KMAMEDFI2
Medfield, MA 02052

Medfield, MA 02052

Lat: 42.1900822, Lon: -71.3296889

Elevation: 138

Station Type: Rainwise WS MK-III

http://www.medfieldweather.com

High Low Average
Temperature 29.9°F-1.2°C 16.4°F-8.7°C 22.5°F-5.3°C
Dew Point 14.3°F-9.8°C 0.4°F-17.6°C 7.3°F-13.7°C
Winds 10.4 mph 16.7 kmh Calm Calm 3.0 mph W4.8 kmh W
Wind Gusts 18.4 mph29.6 kmh -- 6.0 mph9.7 kmh
Humidity 91% 29% 54%
Pressure 30.44 in1030.8 mb 30.01 in1016.3 mb -
Precipitation 0.00 in0.0 mm - -
Hour Temp Dew Point Humidity Winds Wind Gusts Pressure Precip Precip Rate Daily Precip Total
12:00 AM 22.9°F-5.1°C 14.3°F-9.8°C 69% 1.2 mph W1.9 kmh W 3.5 mph5.6 kmh 30.02 in1016.6 mb - 0.00 in0.0 mm 0.00 in0.0 mm
12:10 AM 22.6°F-5.2°C 14.0°F-10.0°C 69% 2.3 mph NW3.7 kmh NW 2.3 mph3.7 kmh 30.02 in1016.6 mb - 0.00 in0.0 mm 0.00 in0.0 mm
12:20 AM 22.3°F-5.4°C 14.0°F-10.0°C 70% 2.3 mph WSW3.7 kmh WSW 5.8 mph9.3 kmh 30.02 in1016.6 mb - 0.00 in0.0 mm 0.00 in0.0 mm
12:30 AM 22.2°F-5.4°C 14.3°F-9.8°C 71% 2.3 mph N3.7 kmh N 2.3 mph3.7 kmh 30.01 in1016.3 mb - 0.00 in0.0 mm 0.00 in0.0 mm
12:40 AM 21.9°F-5.6°C 13.9°F-10.1°C 71% 3.5 mph WSW5.6 kmh WSW 2.3 mph3.7 kmh 30.02 in1016.6 mb - 0.00 in0.0 mm 0.00 in0.0 mm
12:50 AM 21.6°F-5.8°C 14.0°F-10.0°C 72% 1.2 mph SW1.9 kmh SW 2.3 mph3.7 kmh 30.02 in1016.6 mb - 0.00 in0.0 mm 0.00 in0.0 mm
01:00 AM 21.2°F-6.0°C 13.9°F-10.1°C 73% Calm Calm -- 30.03 in1016.9 mb - 0.00 in0.0 mm 0.00 in0.0 mm
01:10 AM 20.9°F-6.2°C 14.0°F-10.0°C 74% 2.3 mph SW3.7 kmh SW 2.3 mph3.7 kmh 30.03 in1016.9 mb - 0.00 in0.0 mm 0.00 in0.0 mm
01:20 AM 20.5°F-6.4°C 13.9°F-10.1°C 75% Calm Calm -- 30.03 in1016.9 mb - 0.00 in0.0 mm 0.00 in0.0 mm
01:30 AM 19.8°F-6.8°C 14.1°F-9.9°C 78% Calm Calm -- 30.03 in1016.9 mb - 0.00 in0.0 mm 0.00 in0.0 mm
01:40 AM 19.0°F-7.2°C 13.8°F-10.1°C 80% Calm Calm -- 30.03 in1016.9 mb - 0.00 in0.0 mm 0.00 in0.0 mm
01:50 AM 18.7°F-7.4°C 14.2°F-9.9°C 82% Calm Calm -- 30.03 in1016.9 mb - 0.00 in0.0 mm 0.00 in0.0 mm
02:00 AM 17.9°F-7.8°C 13.6°F-10.2°C 83% Calm Calm -- 30.03 in1016.9 mb - 0.00 in0.0 mm 0.00 in0.0 mm
02:10 AM 17.8°F-7.9°C 14.1°F-9.9°C 85% Calm Calm -- 30.02 in1016.6 mb - 0.00 in0.0 mm 0.00 in0.0 mm
02:20 AM 17.7°F-7.9°C 13.7°F-10.2°C 84% Calm Calm -- 30.02 in1016.6 mb - 0.00 in0.0 mm 0.00 in0.0 mm
02:30 AM 16.9°F-8.4°C 13.4°F-10.3°C 86% Calm Calm -- 30.03 in1016.9 mb - 0.00 in0.0 mm 0.00 in0.0 mm
02:40 AM 16.4°F-8.7°C 14.3°F-9.8°C 91% Calm Calm 1.2 mph1.9 kmh 30.03 in1016.9 mb - 0.00 in0.0 mm 0.00 in0.0 mm
02:50 AM 16.8°F-8.4°C 14.2°F-9.9°C 89% Calm Calm -- 30.03 in1016.9 mb - 0.00 in0.0 mm 0.00 in0.0 mm
03:00 AM 16.8°F-8.4°C 14.2°F-9.9°C 89% Calm Calm 1.2 mph1.9 kmh 30.03 in1016.9 mb - 0.00 in0.0 mm 0.00 in0.0 mm
03:10 AM 17.7°F-7.9°C 14.2°F-9.9°C 86% Calm Calm -- 30.04 in1017.3 mb - 0.00 in0.0 mm 0.00 in0.0 mm
03:20 AM 17.9°F-7.8°C 13.9°F-10.1°C 84% Calm Calm -- 30.04 in1017.3 mb - 0.00 in0.0 mm 0.00 in0.0 mm
03:30 AM 17.8°F-7.9°C 14.1°F-9.9°C 85% Calm Calm -- 30.04 in1017.3 mb - 0.00 in0.0 mm 0.00 in0.0 mm
03:40 AM 18.0°F-7.8°C 13.4°F-10.3°C 82% 2.3 mph WSW3.7 kmh WSW 2.3 mph3.7 kmh 30.04 in1017.3 mb - 0.00 in0.0 mm 0.00 in0.0 mm
03:50 AM 18.6°F-7.4°C 13.1°F-10.5°C 79% 1.2 mph W1.9 kmh W 5.8 mph9.3 kmh 30.04 in1017.3 mb - 0.00 in0.0 mm 0.00 in0.0 mm
04:00 AM 19.0°F-7.2°C 12.6°F-10.8°C 76% Calm Calm 1.2 mph1.9 kmh 30.05 in1017.6 mb - 0.00 in0.0 mm 0.00 in0.0 mm
04:10 AM 19.5°F-6.9°C 12.2°F-11.0°C 73% 2.3 mph WSW3.7 kmh WSW 2.3 mph3.7 kmh 30.05 in1017.6 mb - 0.00 in0.0 mm 0.00 in0.0 mm
04:20 AM 19.7°F-6.8°C 12.5°F-10.8°C 73% 1.2 mph WNW1.9 kmh WNW 1.2 mph1.9 kmh 30.06 in1017.9 mb - 0.00 in0.0 mm 0.00 in0.0 mm
04:30 AM 19.7°F-6.8°C 12.7°F-10.7°C 74% 2.3 mph WSW3.7 kmh WSW 3.5 mph5.6 kmh 30.07 in1018.3 mb - 0.00 in0.0 mm 0.00 in0.0 mm
04:40 AM 19.6°F-6.9°C 12.4°F-10.9°C 73% 2.3 mph WSW3.7 kmh WSW 3.5 mph5.6 kmh 30.07 in1018.3 mb - 0.00 in0.0 mm 0.00 in0.0 mm
04:50 AM 19.7°F-6.8°C 13.1°F-10.5°C 75% 2.3 mph WSW3.7 kmh WSW 2.3 mph3.7 kmh 30.07 in1018.3 mb - 0.00 in0.0 mm 0.00 in0.0 mm
05:00 AM 19.8°F-6.8°C 13.2°F-10.4°C 75% 3.5 mph SW5.6 kmh SW 5.8 mph9.3 kmh 30.08 in1018.6 mb - 0.00 in0.0 mm 0.00 in0.0 mm
05:10 AM 19.7°F-6.8°C 13.1°F-10.5°C 75% 2.3 mph WSW3.7 kmh WSW 2.3 mph3.7 kmh 30.08 in1018.6 mb - 0.00 in0.0 mm 0.00 in0.0 mm
05:20 AM 19.5°F-6.9°C 13.8°F-10.1°C 78% 1.2 mph W1.9 kmh W 1.2 mph1.9 kmh 30.09 in1019.0 mb - 0.00 in0.0 mm 0.00 in0.0 mm
05:30 AM 18.9°F-7.3°C 13.2°F-10.4°C 78% 2.3 mph W3.7 kmh W 2.3 mph3.7 kmh 30.10 in1019.3 mb - 0.00 in0.0 mm 0.00 in0.0 mm
05:40 AM 19.0°F-7.2°C 12.7°F-10.7°C 76% 2.3 mph WSW3.7 kmh WSW 2.3 mph3.7 kmh 30.10 in1019.3 mb - 0.00 in0.0 mm 0.00 in0.0 mm
05:50 AM 18.9°F-7.3°C 12.3°F-10.9°C 75% 2.3 mph WSW3.7 kmh WSW 2.3 mph3.7 kmh 30.10 in1019.3 mb - 0.00 in0.0 mm 0.00 in0.0 mm
06:00 AM 18.8°F-7.3°C 11.9°F-11.2°C 74% 2.3 mph WSW3.7 kmh WSW 2.3 mph3.7 kmh 30.10 in1019.3 mb - 0.00 in0.0 mm 0.00 in0.0 mm
06:10 AM 18.7°F-7.4°C 11.8°F-11.2°C 74% 3.5 mph WSW5.6 kmh WSW 9.2 mph14.8 kmh 30.11 in1019.6 mb - 0.00 in0.0 mm 0.00 in0.0 mm
06:20 AM 18.7°F-7.4°C 10.9°F-11.7°C 71% 1.2 mph W1.9 kmh W 3.5 mph5.6 kmh 30.12 in1020.0 mb - 0.00 in0.0 mm 0.00 in0.0 mm
06:30 AM 18.7°F-7.4°C 10.5°F-11.9°C 70% 5.8 mph WSW9.3 kmh WSW 6.9 mph11.1 kmh 30.12 in1020.0 mb - 0.00 in0.0 mm 0.00 in0.0 mm
06:40 AM 18.8°F-7.3°C 10.3°F-12.1°C 69% 3.5 mph WSW5.6 kmh WSW 8.1 mph13.0 kmh 30.13 in1020.3 mb - 0.00 in0.0 mm 0.00 in0.0 mm
06:50 AM 18.7°F-7.4°C 9.9°F-12.3°C 68% 3.5 mph WSW5.6 kmh WSW 2.3 mph3.7 kmh 30.13 in1020.3 mb - 0.00 in0.0 mm 0.00 in0.0 mm
07:00 AM 18.6°F-7.4°C 10.1°F-12.2°C 69% 2.3 mph WNW3.7 kmh WNW 5.8 mph9.3 kmh 30.14 in1020.7 mb - 0.00 in0.0 mm 0.00 in0.0 mm
07:10 AM 18.5°F-7.5°C 10.0°F-12.2°C 69% 2.3 mph WSW3.7 kmh WSW 2.3 mph3.7 kmh 30.14 in1020.7 mb - 0.00 in0.0 mm 0.00 in0.0 mm
07:20 AM 18.3°F-7.6°C 9.8°F-12.3°C 69% 3.5 mph W5.6 kmh W 2.3 mph3.7 kmh 30.14 in1020.7 mb - 0.00 in0.0 mm 0.00 in0.0 mm
07:30 AM 18.4°F-7.6°C 9.6°F-12.4°C 68% 2.3 mph NW3.7 kmh NW 5.8 mph9.3 kmh 30.14 in1020.7 mb - 0.00 in0.0 mm 0.00 in0.0 mm
07:40 AM 18.5°F-7.5°C 9.4°F-12.6°C 67% 5.8 mph NW9.3 kmh NW 6.9 mph11.1 kmh 30.14 in1020.7 mb - 0.00 in0.0 mm 0.00 in0.0 mm
07:50 AM 18.8°F-7.3°C 9.7°F-12.4°C 67% 3.5 mph NW5.6 kmh NW 5.8 mph9.3 kmh 30.15 in1021.0 mb - 0.00 in0.0 mm 0.00 in0.0 mm
08:00 AM 19.1°F-7.2°C 9.6°F-12.4°C 66% 2.3 mph WSW3.7 kmh WSW 5.8 mph9.3 kmh 30.15 in1021.0 mb - 0.00 in0.0 mm 0.00 in0.0 mm
08:10 AM 19.3°F-7.1°C 8.8°F-12.9°C 63% 4.6 mph W7.4 kmh W 6.9 mph11.1 kmh 30.15 in1021.0 mb - 0.00 in0.0 mm 0.00 in0.0 mm
08:20 AM 19.7°F-6.8°C 9.1°F-12.7°C 63% 3.5 mph WSW5.6 kmh WSW 5.8 mph9.3 kmh 30.16 in1021.3 mb - 0.00 in0.0 mm 0.00 in0.0 mm
08:30 AM 20.1°F-6.6°C 8.8°F-12.9°C 61% 4.6 mph NW7.4 kmh NW 2.3 mph3.7 kmh 30.16 in1021.3 mb - 0.00 in0.0 mm 0.00 in0.0 mm
08:40 AM 20.4°F-6.4°C 8.7°F-12.9°C 60% 5.8 mph NNW9.3 kmh NNW 11.5 mph18.5 kmh 30.16 in1021.3 mb - 0.00 in0.0 mm 0.00 in0.0 mm
08:50 AM 20.7°F-6.3°C 8.6°F-13.0°C 59% 2.3 mph WNW3.7 kmh WNW 9.2 mph14.8 kmh 30.16 in1021.3 mb - 0.00 in0.0 mm 0.00 in0.0 mm
09:00 AM 21.4°F-5.9°C 8.9°F-12.8°C 58% 3.5 mph W5.6 kmh W 11.5 mph18.5 kmh 30.17 in1021.7 mb - 0.00 in0.0 mm 0.00 in0.0 mm
09:10 AM 21.7°F-5.7°C 8.4°F-13.1°C 56% 2.3 mph WNW3.7 kmh WNW 8.1 mph13.0 kmh 30.16 in1021.3 mb - 0.00 in0.0 mm 0.00 in0.0 mm
09:20 AM 22.2°F-5.4°C 8.5°F-13.1°C 55% 4.6 mph WSW7.4 kmh WSW 8.1 mph13.0 kmh 30.17 in1021.7 mb - 0.00 in0.0 mm 0.00 in0.0 mm
09:30 AM 22.5°F-5.3°C 7.5°F-13.6°C 52% 5.8 mph NW9.3 kmh NW 8.1 mph13.0 kmh 30.17 in1021.7 mb - 0.00 in0.0 mm 0.00 in0.0 mm
09:40 AM 23.1°F-4.9°C 8.1°F-13.3°C 52% 3.5 mph WNW5.6 kmh WNW 6.9 mph11.1 kmh 30.17 in1021.7 mb - 0.00 in0.0 mm 0.00 in0.0 mm
09:50 AM 23.3°F-4.8°C 7.4°F-13.7°C 50% 5.8 mph W9.3 kmh W 17.3 mph27.8 kmh 30.18 in1022.0 mb - 0.00 in0.0 mm 0.00 in0.0 mm
10:00 AM 23.7°F-4.6°C 7.7°F-13.5°C 50% 4.6 mph NNW7.4 kmh NNW 3.5 mph5.6 kmh 30.18 in1022.0 mb - 0.00 in0.0 mm 0.00 in0.0 mm
10:10 AM 24.2°F-4.3°C 7.3°F-13.7°C 48% 8.1 mph WSW13.0 kmh WSW 16.1 mph25.9 kmh 30.18 in1022.0 mb - 0.00 in0.0 mm 0.00 in0.0 mm
10:20 AM 24.9°F-3.9°C 7.5°F-13.6°C 47% 8.1 mph WSW13.0 kmh WSW 12.7 mph20.4 kmh 30.19 in1022.4 mb - 0.00 in0.0 mm 0.00 in0.0 mm
10:30 AM 25.6°F-3.6°C 7.2°F-13.8°C 45% 4.6 mph W7.4 kmh W 5.8 mph9.3 kmh 30.20 in1022.7 mb - 0.00 in0.0 mm 0.00 in0.0 mm
10:40 AM 25.9°F-3.4°C 7.4°F-13.7°C 45% 5.8 mph NW9.3 kmh NW 16.1 mph25.9 kmh 30.20 in1022.7 mb - 0.00 in0.0 mm 0.00 in0.0 mm
10:50 AM 25.9°F-3.4°C 7.4°F-13.7°C 45% 5.8 mph WNW9.3 kmh WNW 5.8 mph9.3 kmh 30.20 in1022.7 mb - 0.00 in0.0 mm 0.00 in0.0 mm
11:00 AM 25.9°F-3.4°C 7.4°F-13.7°C 45% 4.6 mph S7.4 kmh S 11.5 mph18.5 kmh 30.21 in1023.0 mb - 0.00 in0.0 mm 0.00 in0.0 mm
11:10 AM 26.2°F-3.2°C 7.7°F-13.5°C 45% 6.9 mph WSW11.1 kmh WSW 11.5 mph18.5 kmh 30.20 in1022.7 mb - 0.00 in0.0 mm 0.00 in0.0 mm
11:20 AM 26.8°F-2.9°C 8.2°F-13.2°C 45% 3.5 mph NNW5.6 kmh NNW 9.2 mph14.8 kmh 30.20 in1022.7 mb - 0.00 in0.0 mm 0.00 in0.0 mm
11:30 AM 26.9°F-2.8°C 8.4°F-13.1°C 45% 10.4 mph NW16.7 kmh NW 17.3 mph27.8 kmh 30.19 in1022.4 mb - 0.00 in0.0 mm 0.00 in0.0 mm
11:40 AM 26.8°F-2.9°C 8.3°F-13.2°C 45% 2.3 mph WSW3.7 kmh WSW 3.5 mph5.6 kmh 30.19 in1022.4 mb - 0.00 in0.0 mm 0.00 in0.0 mm
11:50 AM 26.9°F-2.8°C 7.4°F-13.7°C 43% 8.1 mph NW13.0 kmh NW 10.4 mph16.7 kmh 30.19 in1022.4 mb - 0.00 in0.0 mm 0.00 in0.0 mm
12:00 PM 26.7°F-2.9°C 6.7°F-14.1°C 42% 10.4 mph W16.7 kmh W 17.3 mph27.8 kmh 30.18 in1022.0 mb - 0.00 in0.0 mm 0.00 in0.0 mm
12:10 PM 27.0°F-2.8°C 6.9°F-13.9°C 42% 3.5 mph WSW5.6 kmh WSW 9.2 mph14.8 kmh 30.18 in1022.0 mb - 0.00 in0.0 mm 0.00 in0.0 mm
12:20 PM 27.5°F-2.5°C 6.3°F-14.3°C 40% 8.1 mph S13.0 kmh S 9.2 mph14.8 kmh 30.19 in1022.4 mb - 0.00 in0.0 mm 0.00 in0.0 mm
12:30 PM 28.2°F-2.1°C 6.9°F-13.9°C 40% 6.9 mph WSW11.1 kmh WSW 11.5 mph18.5 kmh 30.18 in1022.0 mb - 0.00 in0.0 mm 0.00 in0.0 mm
12:40 PM 28.1°F-2.2°C 5.8°F-14.6°C 38% 10.4 mph WSW16.7 kmh WSW 13.8 mph22.2 kmh 30.18 in1022.0 mb - 0.00 in0.0 mm 0.00 in0.0 mm
12:50 PM 27.9°F-2.3°C 5.6°F-14.7°C 38% 10.4 mph WSW16.7 kmh WSW 16.1 mph25.9 kmh 30.18 in1022.0 mb - 0.00 in0.0 mm 0.00 in0.0 mm
01:00 PM 28.6°F-1.9°C 6.1°F-14.4°C 38% 6.9 mph WSW11.1 kmh WSW 9.2 mph14.8 kmh 30.18 in1022.0 mb - 0.00 in0.0 mm 0.00 in0.0 mm
01:10 PM 28.4°F-2.0°C 4.8°F-15.1°C 36% 6.9 mph W11.1 kmh W 8.1 mph13.0 kmh 30.18 in1022.0 mb - 0.00 in0.0 mm 0.00 in0.0 mm
01:20 PM 28.9°F-1.7°C 5.2°F-14.9°C 36% 6.9 mph WNW11.1 kmh WNW 13.8 mph22.2 kmh 30.18 in1022.0 mb - 0.00 in0.0 mm 0.00 in0.0 mm
01:30 PM 29.1°F-1.6°C 6.6°F-14.1°C 38% 1.2 mph WNW1.9 kmh WNW 2.3 mph3.7 kmh 30.19 in1022.4 mb - 0.00 in0.0 mm 0.00 in0.0 mm
01:40 PM 29.3°F-1.5°C 3.0°F-16.1°C 32% 9.2 mph WSW14.8 kmh WSW 12.7 mph20.4 kmh 30.19 in1022.4 mb - 0.00 in0.0 mm 0.00 in0.0 mm
01:50 PM 29.6°F-1.3°C 2.6°F-16.3°C 31% 5.8 mph SW9.3 kmh SW 9.2 mph14.8 kmh 30.19 in1022.4 mb - 0.00 in0.0 mm 0.00 in0.0 mm
02:00 PM 29.5°F-1.4°C 3.2°F-16.0°C 32% 4.6 mph NNW7.4 kmh NNW 5.8 mph9.3 kmh 30.20 in1022.7 mb - 0.00 in0.0 mm 0.00 in0.0 mm
02:10 PM 29.9°F-1.2°C 3.6°F-15.8°C 32% 3.5 mph SW5.6 kmh SW 8.1 mph13.0 kmh 30.20 in1022.7 mb - 0.00 in0.0 mm 0.00 in0.0 mm
02:20 PM 29.8°F-1.2°C 2.8°F-16.2°C 31% 9.2 mph NW14.8 kmh NW 18.4 mph29.6 kmh 30.20 in1022.7 mb - 0.00 in0.0 mm 0.00 in0.0 mm
02:30 PM 29.3°F-1.5°C 0.9°F-17.3°C 29% 8.1 mph WSW13.0 kmh WSW 17.3 mph27.8 kmh 30.20 in1022.7 mb - 0.00 in0.0 mm 0.00 in0.0 mm
02:40 PM 28.9°F-1.7°C 1.3°F-17.1°C 30% 5.8 mph WNW9.3 kmh WNW 11.5 mph18.5 kmh 30.22 in1023.4 mb - 0.00 in0.0 mm 0.00 in0.0 mm
02:50 PM 28.6°F-1.9°C 1.7°F-16.8°C 31% 3.5 mph WSW5.6 kmh WSW 5.8 mph9.3 kmh 30.22 in1023.4 mb - 0.00 in0.0 mm 0.00 in0.0 mm
03:00 PM 28.4°F-2.0°C 2.2°F-16.6°C 32% 5.8 mph W9.3 kmh W 9.2 mph14.8 kmh 30.22 in1023.4 mb - 0.00 in0.0 mm 0.00 in0.0 mm
03:10 PM 28.7°F-1.8°C 2.5°F-16.4°C 32% 2.3 mph NW3.7 kmh NW 5.8 mph9.3 kmh 30.23 in1023.7 mb - 0.00 in0.0 mm 0.00 in0.0 mm
03:20 PM 28.6°F-1.9°C 3.1°F-16.1°C 33% 5.8 mph NE9.3 kmh NE 10.4 mph16.7 kmh 30.24 in1024.0 mb - 0.00 in0.0 mm 0.00 in0.0 mm
03:30 PM 28.6°F-1.9°C 5.0°F-15.0°C 36% 2.3 mph NNW3.7 kmh NNW 2.3 mph3.7 kmh 30.24 in1024.0 mb - 0.00 in0.0 mm 0.00 in0.0 mm
03:40 PM 28.4°F-2.0°C 2.9°F-16.2°C 33% 8.1 mph SW13.0 kmh SW 12.7 mph20.4 kmh 30.24 in1024.0 mb - 0.00 in0.0 mm 0.00 in0.0 mm
03:50 PM 27.8°F-2.3°C 2.4°F-16.4°C 33% 8.1 mph W13.0 kmh W 11.5 mph18.5 kmh 30.24 in1024.0 mb - 0.00 in0.0 mm 0.00 in0.0 mm
04:00 PM 27.4°F-2.6°C 2.1°F-16.6°C 33% 5.8 mph WSW9.3 kmh WSW 9.2 mph14.8 kmh 30.25 in1024.4 mb - 0.00 in0.0 mm 0.00 in0.0 mm
04:10 PM 27.1°F-2.7°C 2.4°F-16.4°C 34% 4.6 mph W7.4 kmh W 9.2 mph14.8 kmh 30.26 in1024.7 mb - 0.00 in0.0 mm 0.00 in0.0 mm
04:20 PM 26.9°F-2.8°C 1.6°F-16.9°C 33% 4.6 mph NW7.4 kmh NW 8.1 mph13.0 kmh 30.26 in1024.7 mb - 0.00 in0.0 mm 0.00 in0.0 mm
04:30 PM 26.6°F-3.0°C 1.4°F-17.0°C 33% 3.5 mph W5.6 kmh W 5.8 mph9.3 kmh 30.27 in1025.1 mb - 0.00 in0.0 mm 0.00 in0.0 mm
04:40 PM 26.4°F-3.1°C 1.8°F-16.8°C 34% 3.5 mph WSW5.6 kmh WSW 8.1 mph13.0 kmh 30.28 in1025.4 mb - 0.00 in0.0 mm 0.00 in0.0 mm
04:50 PM 26.2°F-3.2°C 1.6°F-16.9°C 34% 6.9 mph W11.1 kmh W 10.4 mph16.7 kmh 30.29 in1025.7 mb - 0.00 in0.0 mm 0.00 in0.0 mm
05:00 PM 25.9°F-3.4°C 1.3°F-17.1°C 34% 9.2 mph WSW14.8 kmh WSW 11.5 mph18.5 kmh 30.29 in1025.7 mb - 0.00 in0.0 mm 0.00 in0.0 mm
05:10 PM 25.7°F-3.5°C 1.2°F-17.1°C 34% 5.8 mph WSW9.3 kmh WSW 6.9 mph11.1 kmh 30.30 in1026.1 mb - 0.00 in0.0 mm 0.00 in0.0 mm
05:20 PM 25.4°F-3.7°C 0.9°F-17.3°C 34% 4.6 mph WSW7.4 kmh WSW 8.1 mph13.0 kmh 30.30 in1026.1 mb - 0.00 in0.0 mm 0.00 in0.0 mm
05:30 PM 25.2°F-3.8°C 1.3°F-17.1°C 35% 4.6 mph S7.4 kmh S 13.8 mph22.2 kmh 30.31 in1026.4 mb - 0.00 in0.0 mm 0.00 in0.0 mm
05:40 PM 24.9°F-3.9°C 0.4°F-17.6°C 34% 3.5 mph W5.6 kmh W 2.3 mph3.7 kmh 30.32 in1026.8 mb - 0.00 in0.0 mm 0.00 in0.0 mm
05:50 PM 24.9°F-3.9°C 0.4°F-17.6°C 34% 3.5 mph NNW5.6 kmh NNW 5.8 mph9.3 kmh 30.32 in1026.8 mb - 0.00 in0.0 mm 0.00 in0.0 mm
06:00 PM 24.6°F-4.1°C 1.4°F-17.0°C 36% 3.5 mph WSW5.6 kmh WSW 5.8 mph9.3 kmh 30.33 in1027.1 mb - 0.00 in0.0 mm 0.00 in0.0 mm
06:10 PM 24.5°F-4.2°C 0.7°F-17.4°C 35% 4.6 mph WNW7.4 kmh WNW 8.1 mph13.0 kmh 30.33 in1027.1 mb - 0.00 in0.0 mm 0.00 in0.0 mm
06:20 PM 24.3°F-4.3°C 0.5°F-17.5°C 35% 3.5 mph NW5.6 kmh NW 2.3 mph3.7 kmh 30.33 in1027.1 mb - 0.00 in0.0 mm 0.00 in0.0 mm
06:30 PM 24.0°F-4.4°C 1.4°F-17.0°C 37% 1.2 mph WSW1.9 kmh WSW 2.3 mph3.7 kmh 30.34 in1027.4 mb - 0.00 in0.0 mm 0.00 in0.0 mm
06:40 PM 23.9°F-4.5°C 0.8°F-17.3°C 36% 5.8 mph WSW9.3 kmh WSW 11.5 mph18.5 kmh 30.34 in1027.4 mb - 0.00 in0.0 mm 0.00 in0.0 mm
06:50 PM 23.6°F-4.7°C 1.1°F-17.2°C 37% 2.3 mph N3.7 kmh N 2.3 mph3.7 kmh 30.35 in1027.8 mb - 0.00 in0.0 mm 0.00 in0.0 mm
07:00 PM 23.6°F-4.7°C 1.6°F-16.9°C 38% 6.9 mph W11.1 kmh W 5.8 mph9.3 kmh 30.35 in1027.8 mb - 0.00 in0.0 mm 0.00 in0.0 mm
07:10 PM 23.3°F-4.8°C 1.4°F-17.0°C 38% 1.2 mph SSW1.9 kmh SSW 3.5 mph5.6 kmh 30.36 in1028.1 mb - 0.00 in0.0 mm 0.00 in0.0 mm
07:20 PM 23.3°F-4.8°C 1.4°F-17.0°C 38% 2.3 mph WSW3.7 kmh WSW 5.8 mph9.3 kmh 30.36 in1028.1 mb - 0.00 in0.0 mm 0.00 in0.0 mm
07:30 PM 23.3°F-4.8°C 1.4°F-17.0°C 38% 1.2 mph WNW1.9 kmh WNW -- 30.37 in1028.4 mb - 0.00 in0.0 mm 0.00 in0.0 mm
07:40 PM 22.9°F-5.1°C 2.1°F-16.6°C 40% 3.5 mph NW5.6 kmh NW 5.8 mph9.3 kmh 30.37 in1028.4 mb - 0.00 in0.0 mm 0.00 in0.0 mm
07:50 PM 22.7°F-5.2°C 1.9°F-16.7°C 40% 3.5 mph W5.6 kmh W 2.3 mph3.7 kmh 30.38 in1028.8 mb - 0.00 in0.0 mm 0.00 in0.0 mm
08:00 PM 22.2°F-5.4°C 3.0°F-16.1°C 43% Calm Calm 1.2 mph1.9 kmh 30.38 in1028.8 mb - 0.00 in0.0 mm 0.00 in0.0 mm
08:10 PM 21.7°F-5.7°C 3.6°F-15.8°C 45% Calm Calm 1.2 mph1.9 kmh 30.38 in1028.8 mb - 0.00 in0.0 mm 0.00 in0.0 mm
08:20 PM 20.9°F-6.2°C 2.9°F-16.2°C 45% 1.2 mph W1.9 kmh W 1.2 mph1.9 kmh 30.40 in1029.5 mb - 0.00 in0.0 mm 0.00 in0.0 mm
08:30 PM 21.3°F-5.9°C 2.3°F-16.5°C 43% 2.3 mph NW3.7 kmh NW 2.3 mph3.7 kmh 30.40 in1029.5 mb - 0.00 in0.0 mm 0.00 in0.0 mm
08:40 PM 21.1°F-6.1°C 3.0°F-16.1°C 45% 1.2 mph WSW1.9 kmh WSW 2.3 mph3.7 kmh 30.40 in1029.5 mb - 0.00 in0.0 mm 0.00 in0.0 mm
08:50 PM 20.8°F-6.2°C 3.7°F-15.7°C 47% Calm Calm -- 30.40 in1029.5 mb - 0.00 in0.0 mm 0.00 in0.0 mm
09:00 PM 20.0°F-6.7°C 4.4°F-15.3°C 50% 1.2 mph W1.9 kmh W 1.2 mph1.9 kmh 30.40 in1029.5 mb - 0.00 in0.0 mm 0.00 in0.0 mm
09:10 PM 19.4°F-7.0°C 3.3°F-15.9°C 49% Calm Calm 2.3 mph3.7 kmh 30.40 in1029.5 mb - 0.00 in0.0 mm 0.00 in0.0 mm
09:20 PM 18.9°F-7.3°C 4.6°F-15.2°C 53% 1.2 mph WNW1.9 kmh WNW 2.3 mph3.7 kmh 30.40 in1029.5 mb - 0.00 in0.0 mm 0.00 in0.0 mm
09:30 PM 19.2°F-7.1°C 6.0°F-14.4°C 56% Calm Calm 1.2 mph1.9 kmh 30.41 in1029.8 mb - 0.00 in0.0 mm 0.00 in0.0 mm
09:40 PM 18.4°F-7.6°C 5.7°F-14.6°C 57% 1.2 mph W1.9 kmh W 1.2 mph1.9 kmh 30.41 in1029.8 mb - 0.00 in0.0 mm 0.00 in0.0 mm
09:50 PM 18.0°F-7.8°C 6.8°F-14.0°C 61% Calm Calm -- 30.42 in1030.1 mb - 0.00 in0.0 mm 0.00 in0.0 mm
10:00 PM 18.2°F-7.7°C 5.9°F-14.5°C 58% Calm Calm -- 30.42 in1030.1 mb - 0.00 in0.0 mm 0.00 in0.0 mm
10:10 PM 18.8°F-7.3°C 4.9°F-15.1°C 54% 1.2 mph W1.9 kmh W 1.2 mph1.9 kmh 30.42 in1030.1 mb - 0.00 in0.0 mm 0.00 in0.0 mm
10:20 PM 19.2°F-7.1°C 5.7°F-14.6°C 55% 2.3 mph WSW3.7 kmh WSW 2.3 mph3.7 kmh 30.42 in1030.1 mb - 0.00 in0.0 mm 0.00 in0.0 mm
10:30 PM 19.9°F-6.7°C 5.1°F-14.9°C 52% 4.6 mph W7.4 kmh W 8.1 mph13.0 kmh 30.42 in1030.1 mb - 0.00 in0.0 mm 0.00 in0.0 mm
10:40 PM 20.2°F-6.6°C 4.9°F-15.1°C 51% 2.3 mph WNW3.7 kmh WNW 2.3 mph3.7 kmh 30.43 in1030.5 mb - 0.00 in0.0 mm 0.00 in0.0 mm
10:50 PM 20.4°F-6.4°C 4.7°F-15.2°C 50% 2.3 mph WSW3.7 kmh WSW 8.1 mph13.0 kmh 30.43 in1030.5 mb - 0.00 in0.0 mm 0.00 in0.0 mm
11:00 PM 20.3°F-6.5°C 5.0°F-15.0°C 51% 2.3 mph WSW3.7 kmh WSW 2.3 mph3.7 kmh 30.43 in1030.5 mb - 0.00 in0.0 mm 0.00 in0.0 mm
11:10 PM 20.5°F-6.4°C 4.8°F-15.1°C 50% 1.2 mph NW1.9 kmh NW 2.3 mph3.7 kmh 30.43 in1030.5 mb - 0.00 in0.0 mm 0.00 in0.0 mm
11:20 PM 20.3°F-6.5°C 5.0°F-15.0°C 51% 3.5 mph W5.6 kmh W 3.5 mph5.6 kmh 30.43 in1030.5 mb - 0.00 in0.0 mm 0.00 in0.0 mm
11:30 PM 20.3°F-6.5°C 4.2°F-15.4°C 49% 4.6 mph W7.4 kmh W 3.5 mph5.6 kmh 30.43 in1030.5 mb - 0.00 in0.0 mm 0.00 in0.0 mm
11:40 PM 20.3°F-6.5°C 4.6°F-15.2°C 50% 3.5 mph SW5.6 kmh SW 2.3 mph3.7 kmh 30.43 in1030.5 mb - 0.00 in0.0 mm 0.00 in0.0 mm
11:50 PM 20.1°F-6.6°C 4.8°F-15.1°C 51% 2.3 mph W3.7 kmh W 9.2 mph14.8 kmh 30.44 in1030.8 mb - 0.00 in0.0 mm 0.00 in0.0 mm